Archival Weather

Bridgeport/Sikorsky

Bridgeport, Connecticut (KBDR)

Report from: Friday, February 23, 2024 2:52 AM EST
Current time: Wednesday, May 29, 2024 8:54 PM EDT

Current weather – Weather history – Daily summaries
Weather forecast

Present weatherLight rain
Temperature4.4°C (39.9°F)
Wind chill1.4°C (34.5°F)
Dew point3.3°C (37.9°F)
Winds 7 kts (3.6 m/s, 8.1 mph) East-Northeast (60°)
Visibility10 mi. (16.1 km)
Clouds Ceiling: Broken clouds 6,000 ft. (1,829 m)
Broken clouds 7,000 ft. (2,134 m)
Overcast 8,500 ft. (2,591 m)
Altimeter29.61 in.Hg (1003 mB)
Precipitiation0.03 in. (1 mm)
Relative humidity93 %
Density altitude-805 ft. (-245 m)
Sea-level pressure100.3 kPa (1003 mB, 29.61 in.Hg)
Remarks Fully automated report
Automated weather observing station with precipitation discriminator
Flight conditions Visual Meteorological Conditions
Raw dataKBDR 230752Z AUTO 06007KT 10SM -RA BKN060 BKN070 OVC085 04/03 A2961 RMK AO2 SLP026 P0003 T00440033
An error has occurred. This application may no longer respond until reloaded. Reload 🗙